sensor_id;sensor_type;location;lat;lon;timestamp;P1;durP1;ratioP1;P2;durP2;ratioP2
7160;SDS011;3622;53.576;9.978;2023-02-03T00:01:52;6.43;;;4.80;;
7160;SDS011;3622;53.576;9.978;2023-02-03T00:04:18;4.50;;;4.10;;
7160;SDS011;3622;53.576;9.978;2023-02-03T00:06:44;5.90;;;4.93;;
7160;SDS011;3622;53.576;9.978;2023-02-03T00:09:11;5.60;;;4.63;;
7160;SDS011;3622;53.576;9.978;2023-02-03T00:11:37;6.07;;;4.90;;
7160;SDS011;3622;53.576;9.978;2023-02-03T00:14:03;6.13;;;4.90;;
7160;SDS011;3622;53.576;9.978;2023-02-03T00:16:29;6.10;;;4.87;;
7160;SDS011;3622;53.576;9.978;2023-02-03T00:18:55;7.90;;;5.00;;
7160;SDS011;3622;53.576;9.978;2023-02-03T00:21:21;6.90;;;5.93;;
7160;SDS011;3622;53.576;9.978;2023-02-03T00:23:47;6.80;;;4.90;;
7160;SDS011;3622;53.576;9.978;2023-02-03T00:26:14;5.83;;;5.00;;
7160;SDS011;3622;53.576;9.978;2023-02-03T00:28:40;6.70;;;5.07;;
7160;SDS011;3622;53.576;9.978;2023-02-03T00:31:13;5.90;;;4.80;;
7160;SDS011;3622;53.576;9.978;2023-02-03T00:33:39;8.97;;;5.37;;
7160;SDS011;3622;53.576;9.978;2023-02-03T00:36:05;5.93;;;4.90;;
7160;SDS011;3622;53.576;9.978;2023-02-03T00:38:31;8.13;;;5.50;;
7160;SDS011;3622;53.576;9.978;2023-02-03T00:40:58;8.90;;;6.20;;
7160;SDS011;3622;53.576;9.978;2023-02-03T00:43:24;8.83;;;5.90;;
7160;SDS011;3622;53.576;9.978;2023-02-03T00:45:49;8.20;;;5.60;;
7160;SDS011;3622;53.576;9.978;2023-02-03T00:48:15;8.77;;;6.20;;
7160;SDS011;3622;53.576;9.978;2023-02-03T00:50:41;7.20;;;5.70;;
7160;SDS011;3622;53.576;9.978;2023-02-03T00:53:07;7.27;;;5.67;;
7160;SDS011;3622;53.576;9.978;2023-02-03T00:55:33;8.93;;;5.60;;
7160;SDS011;3622;53.576;9.978;2023-02-03T00:57:59;10.87;;;6.70;;
7160;SDS011;3622;53.576;9.978;2023-02-03T01:00:25;9.40;;;6.13;;
7160;SDS011;3622;53.576;9.978;2023-02-03T01:02:51;12.73;;;6.30;;
7160;SDS011;3622;53.576;9.978;2023-02-03T01:05:17;13.00;;;6.80;;
7160;SDS011;3622;53.576;9.978;2023-02-03T01:07:43;14.73;;;6.90;;
7160;SDS011;3622;53.576;9.978;2023-02-03T01:10:09;10.27;;;6.60;;
7160;SDS011;3622;53.576;9.978;2023-02-03T01:12:35;9.00;;;6.40;;
7160;SDS011;3622;53.576;9.978;2023-02-03T01:15:01;12.83;;;6.60;;
7160;SDS011;3622;53.576;9.978;2023-02-03T01:17:27;12.10;;;6.47;;
7160;SDS011;3622;53.576;9.978;2023-02-03T01:19:53;15.70;;;8.33;;
7160;SDS011;3622;53.576;9.978;2023-02-03T01:22:19;15.07;;;8.03;;
7160;SDS011;3622;53.576;9.978;2023-02-03T01:24:45;15.77;;;7.20;;
7160;SDS011;3622;53.576;9.978;2023-02-03T01:27:11;11.00;;;6.37;;
7160;SDS011;3622;53.576;9.978;2023-02-03T01:29:37;12.03;;;6.20;;
7160;SDS011;3622;53.576;9.978;2023-02-03T01:32:03;11.67;;;6.73;;
7160;SDS011;3622;53.576;9.978;2023-02-03T01:34:29;10.63;;;7.00;;
7160;SDS011;3622;53.576;9.978;2023-02-03T01:36:55;15.87;;;7.00;;
7160;SDS011;3622;53.576;9.978;2023-02-03T01:39:21;9.53;;;6.10;;
7160;SDS011;3622;53.576;9.978;2023-02-03T01:41:47;13.73;;;6.40;;
7160;SDS011;3622;53.576;9.978;2023-02-03T01:46:57;10.80;;;7.07;;
7160;SDS011;3622;53.576;9.978;2023-02-03T01:49:25;11.47;;;6.17;;
7160;SDS011;3622;53.576;9.978;2023-02-03T01:51:52;16.33;;;6.23;;
7160;SDS011;3622;53.576;9.978;2023-02-03T01:54:20;10.17;;;5.80;;
7160;SDS011;3622;53.576;9.978;2023-02-03T01:56:49;6.53;;;5.93;;
7160;SDS011;3622;53.576;9.978;2023-02-03T01:59:16;14.63;;;6.27;;
7160;SDS011;3622;53.576;9.978;2023-02-03T02:01:43;8.60;;;6.30;;
7160;SDS011;3622;53.576;9.978;2023-02-03T02:04:09;12.90;;;6.17;;
7160;SDS011;3622;53.576;9.978;2023-02-03T02:06:36;8.37;;;5.73;;
7160;SDS011;3622;53.576;9.978;2023-02-03T02:09:02;13.10;;;6.40;;
7160;SDS011;3622;53.576;9.978;2023-02-03T02:11:28;6.90;;;5.13;;
7160;SDS011;3622;53.576;9.978;2023-02-03T02:13:56;9.43;;;5.57;;
7160;SDS011;3622;53.576;9.978;2023-02-03T02:21:30;9.60;;;5.10;;
7160;SDS011;3622;53.576;9.978;2023-02-03T02:32:08;6.13;;;4.97;;
7160;SDS011;3622;53.576;9.978;2023-02-03T02:37:20;10.33;;;5.40;;
7160;SDS011;3622;53.576;9.978;2023-02-03T02:45:20;7.33;;;4.90;;
7160;SDS011;3622;53.576;9.978;2023-02-03T02:47:47;10.23;;;4.43;;
7160;SDS011;3622;53.576;9.978;2023-02-03T02:50:16;6.73;;;5.00;;
7160;SDS011;3622;53.576;9.978;2023-02-03T02:52:43;6.70;;;4.33;;
7160;SDS011;3622;53.576;9.978;2023-02-03T02:55:15;9.10;;;5.07;;
7160;SDS011;3622;53.576;9.978;2023-02-03T02:57:41;8.93;;;4.83;;
7160;SDS011;3622;53.576;9.978;2023-02-03T03:00:08;11.43;;;4.37;;
7160;SDS011;3622;53.576;9.978;2023-02-03T03:02:35;5.60;;;3.67;;
7160;SDS011;3622;53.576;9.978;2023-02-03T03:05:01;9.50;;;4.43;;
7160;SDS011;3622;53.576;9.978;2023-02-03T03:07:29;10.00;;;4.63;;
7160;SDS011;3622;53.576;9.978;2023-02-03T03:09:59;5.70;;;4.30;;
7160;SDS011;3622;53.576;9.978;2023-02-03T03:14:56;5.53;;;3.93;;
7160;SDS011;3622;53.576;9.978;2023-02-03T03:17:25;7.20;;;4.17;;
7160;SDS011;3622;53.576;9.978;2023-02-03T03:19:55;10.60;;;3.80;;
7160;SDS011;3622;53.576;9.978;2023-02-03T03:22:29;8.33;;;4.13;;
7160;SDS011;3622;53.576;9.978;2023-02-03T03:25:02;6.53;;;4.00;;
7160;SDS011;3622;53.576;9.978;2023-02-03T03:27:31;8.90;;;3.90;;
7160;SDS011;3622;53.576;9.978;2023-02-03T03:32:24;11.40;;;3.63;;
7160;SDS011;3622;53.576;9.978;2023-02-03T03:34:52;8.27;;;3.10;;
7160;SDS011;3622;53.576;9.978;2023-02-03T03:37:21;5.63;;;3.17;;
7160;SDS011;3622;53.576;9.978;2023-02-03T03:42:28;3.47;;;2.50;;
7160;SDS011;3622;53.576;9.978;2023-02-03T03:44:58;4.30;;;2.60;;
7160;SDS011;3622;53.576;9.978;2023-02-03T03:47:30;7.73;;;3.00;;
7160;SDS011;3622;53.576;9.978;2023-02-03T03:49:57;7.93;;;2.50;;
7160;SDS011;3622;53.576;9.978;2023-02-03T03:52:26;5.57;;;2.50;;
7160;SDS011;3622;53.576;9.978;2023-02-03T03:54:53;8.83;;;2.87;;
7160;SDS011;3622;53.576;9.978;2023-02-03T03:57:30;4.17;;;2.70;;
7160;SDS011;3622;53.576;9.978;2023-02-03T03:59:58;8.10;;;3.43;;
7160;SDS011;3622;53.576;9.978;2023-02-03T04:02:24;3.80;;;3.20;;
7160;SDS011;3622;53.576;9.978;2023-02-03T04:04:51;6.37;;;3.00;;
7160;SDS011;3622;53.576;9.978;2023-02-03T04:07:18;10.50;;;2.40;;
7160;SDS011;3622;53.576;9.978;2023-02-03T04:09:44;8.73;;;3.60;;
7160;SDS011;3622;53.576;9.978;2023-02-03T04:12:17;7.43;;;3.50;;
7160;SDS011;3622;53.576;9.978;2023-02-03T04:14:44;4.47;;;3.90;;
7160;SDS011;3622;53.576;9.978;2023-02-03T04:17:10;7.33;;;4.33;;
7160;SDS011;3622;53.576;9.978;2023-02-03T04:19:36;6.10;;;4.30;;
7160;SDS011;3622;53.576;9.978;2023-02-03T04:22:02;4.70;;;3.17;;
7160;SDS011;3622;53.576;9.978;2023-02-03T04:24:28;9.77;;;3.87;;
7160;SDS011;3622;53.576;9.978;2023-02-03T04:26:54;4.13;;;3.70;;
7160;SDS011;3622;53.576;9.978;2023-02-03T04:29:20;7.83;;;4.40;;
7160;SDS011;3622;53.576;9.978;2023-02-03T04:31:46;10.50;;;4.17;;
7160;SDS011;3622;53.576;9.978;2023-02-03T04:34:12;5.27;;;3.97;;
7160;SDS011;3622;53.576;9.978;2023-02-03T04:36:38;6.60;;;3.93;;
7160;SDS011;3622;53.576;9.978;2023-02-03T04:39:04;9.30;;;4.30;;
7160;SDS011;3622;53.576;9.978;2023-02-03T04:41:30;5.17;;;3.80;;
7160;SDS011;3622;53.576;9.978;2023-02-03T04:43:56;5.83;;;4.27;;
7160;SDS011;3622;53.576;9.978;2023-02-03T04:46:22;6.50;;;4.60;;
7160;SDS011;3622;53.576;9.978;2023-02-03T04:48:48;10.03;;;4.33;;
7160;SDS011;3622;53.576;9.978;2023-02-03T04:51:14;8.20;;;4.87;;
7160;SDS011;3622;53.576;9.978;2023-02-03T04:53:40;6.40;;;4.17;;
7160;SDS011;3622;53.576;9.978;2023-02-03T04:56:06;6.17;;;4.37;;
7160;SDS011;3622;53.576;9.978;2023-02-03T04:58:32;10.97;;;5.47;;
7160;SDS011;3622;53.576;9.978;2023-02-03T05:01:05;8.23;;;4.93;;
7160;SDS011;3622;53.576;9.978;2023-02-03T05:03:31;7.50;;;6.03;;
7160;SDS011;3622;53.576;9.978;2023-02-03T05:05:57;13.93;;;7.03;;
7160;SDS011;3622;53.576;9.978;2023-02-03T05:08:23;5.70;;;3.97;;
7160;SDS011;3622;53.576;9.978;2023-02-03T05:10:49;8.67;;;4.90;;
7160;SDS011;3622;53.576;9.978;2023-02-03T05:13:15;14.07;;;4.77;;
7160;SDS011;3622;53.576;9.978;2023-02-03T05:15:41;10.60;;;4.90;;
7160;SDS011;3622;53.576;9.978;2023-02-03T05:18:07;8.30;;;4.50;;
7160;SDS011;3622;53.576;9.978;2023-02-03T05:20:33;7.73;;;4.40;;
7160;SDS011;3622;53.576;9.978;2023-02-03T05:22:59;8.37;;;4.73;;
7160;SDS011;3622;53.576;9.978;2023-02-03T05:25:25;10.47;;;4.73;;
7160;SDS011;3622;53.576;9.978;2023-02-03T05:27:51;6.17;;;3.20;;
7160;SDS011;3622;53.576;9.978;2023-02-03T05:30:17;10.70;;;4.07;;
7160;SDS011;3622;53.576;9.978;2023-02-03T05:32:43;9.27;;;5.17;;
7160;SDS011;3622;53.576;9.978;2023-02-03T05:35:09;7.73;;;4.33;;
7160;SDS011;3622;53.576;9.978;2023-02-03T05:37:35;7.10;;;4.07;;
7160;SDS011;3622;53.576;9.978;2023-02-03T05:40:01;12.77;;;5.33;;
7160;SDS011;3622;53.576;9.978;2023-02-03T05:42:49;5.30;;;3.53;;
7160;SDS011;3622;53.576;9.978;2023-02-03T05:45:15;5.87;;;4.60;;
7160;SDS011;3622;53.576;9.978;2023-02-03T05:47:41;6.73;;;4.60;;
7160;SDS011;3622;53.576;9.978;2023-02-03T05:50:07;6.60;;;4.00;;
7160;SDS011;3622;53.576;9.978;2023-02-03T05:52:33;6.93;;;4.13;;
7160;SDS011;3622;53.576;9.978;2023-02-03T05:54:59;5.97;;;3.37;;
7160;SDS011;3622;53.576;9.978;2023-02-03T05:57:25;5.50;;;4.10;;
7160;SDS011;3622;53.576;9.978;2023-02-03T05:59:51;6.80;;;3.70;;
7160;SDS011;3622;53.576;9.978;2023-02-03T06:02:17;6.60;;;4.20;;
7160;SDS011;3622;53.576;9.978;2023-02-03T06:04:43;5.63;;;3.93;;
7160;SDS011;3622;53.576;9.978;2023-02-03T06:07:09;7.47;;;3.77;;
7160;SDS011;3622;53.576;9.978;2023-02-03T06:09:35;4.50;;;3.60;;
7160;SDS011;3622;53.576;9.978;2023-02-03T06:12:01;8.90;;;3.23;;
7160;SDS011;3622;53.576;9.978;2023-02-03T06:14:26;3.83;;;2.90;;
7160;SDS011;3622;53.576;9.978;2023-02-03T06:16:52;3.77;;;2.87;;
7160;SDS011;3622;53.576;9.978;2023-02-03T06:19:18;3.03;;;2.83;;
7160;SDS011;3622;53.576;9.978;2023-02-03T06:21:44;4.50;;;2.67;;
7160;SDS011;3622;53.576;9.978;2023-02-03T06:24:10;7.90;;;3.17;;
7160;SDS011;3622;53.576;9.978;2023-02-03T06:26:36;7.10;;;2.57;;
7160;SDS011;3622;53.576;9.978;2023-02-03T06:29:02;9.27;;;3.17;;
7160;SDS011;3622;53.576;9.978;2023-02-03T06:31:28;4.17;;;3.23;;
7160;SDS011;3622;53.576;9.978;2023-02-03T06:33:54;4.83;;;3.40;;
7160;SDS011;3622;53.576;9.978;2023-02-03T06:36:21;7.23;;;3.67;;
7160;SDS011;3622;53.576;9.978;2023-02-03T06:38:47;3.13;;;2.83;;
7160;SDS011;3622;53.576;9.978;2023-02-03T06:41:14;8.07;;;3.53;;
7160;SDS011;3622;53.576;9.978;2023-02-03T06:43:40;8.03;;;2.97;;
7160;SDS011;3622;53.576;9.978;2023-02-03T06:46:06;7.07;;;3.87;;
7160;SDS011;3622;53.576;9.978;2023-02-03T06:48:32;5.53;;;3.60;;
7160;SDS011;3622;53.576;9.978;2023-02-03T06:50:58;6.80;;;4.43;;
7160;SDS011;3622;53.576;9.978;2023-02-03T06:53:24;3.90;;;3.60;;
7160;SDS011;3622;53.576;9.978;2023-02-03T06:55:50;18.87;;;4.80;;
7160;SDS011;3622;53.576;9.978;2023-02-03T06:58:16;6.73;;;3.60;;
7160;SDS011;3622;53.576;9.978;2023-02-03T07:00:42;14.60;;;4.30;;
7160;SDS011;3622;53.576;9.978;2023-02-03T07:03:08;6.10;;;4.13;;
7160;SDS011;3622;53.576;9.978;2023-02-03T07:05:34;9.23;;;4.00;;
7160;SDS011;3622;53.576;9.978;2023-02-03T07:08:00;7.00;;;3.10;;
7160;SDS011;3622;53.576;9.978;2023-02-03T07:10:26;5.93;;;3.30;;
7160;SDS011;3622;53.576;9.978;2023-02-03T07:12:52;7.57;;;3.20;;
7160;SDS011;3622;53.576;9.978;2023-02-03T07:15:18;9.10;;;3.27;;
7160;SDS011;3622;53.576;9.978;2023-02-03T07:17:45;6.03;;;3.73;;
7160;SDS011;3622;53.576;9.978;2023-02-03T07:20:18;3.87;;;2.63;;
7160;SDS011;3622;53.576;9.978;2023-02-03T07:22:44;6.40;;;3.20;;
7160;SDS011;3622;53.576;9.978;2023-02-03T07:25:11;11.03;;;2.90;;
7160;SDS011;3622;53.576;9.978;2023-02-03T07:27:37;6.80;;;3.50;;
7160;SDS011;3622;53.576;9.978;2023-02-03T07:30:03;5.63;;;3.70;;
7160;SDS011;3622;53.576;9.978;2023-02-03T07:32:29;8.23;;;3.50;;
7160;SDS011;3622;53.576;9.978;2023-02-03T07:34:55;5.07;;;2.60;;
7160;SDS011;3622;53.576;9.978;2023-02-03T07:37:21;5.33;;;2.50;;
7160;SDS011;3622;53.576;9.978;2023-02-03T07:39:47;7.50;;;2.80;;
7160;SDS011;3622;53.576;9.978;2023-02-03T07:42:13;11.97;;;3.40;;
7160;SDS011;3622;53.576;9.978;2023-02-03T07:44:39;11.50;;;3.10;;
7160;SDS011;3622;53.576;9.978;2023-02-03T07:47:05;7.80;;;2.73;;
7160;SDS011;3622;53.576;9.978;2023-02-03T07:49:31;7.93;;;2.70;;
7160;SDS011;3622;53.576;9.978;2023-02-03T07:51:56;10.13;;;2.60;;
7160;SDS011;3622;53.576;9.978;2023-02-03T07:54:22;7.70;;;2.70;;
7160;SDS011;3622;53.576;9.978;2023-02-03T07:56:48;4.13;;;2.10;;
7160;SDS011;3622;53.576;9.978;2023-02-03T07:59:15;9.50;;;2.20;;
7160;SDS011;3622;53.576;9.978;2023-02-03T08:01:41;7.07;;;2.50;;
7160;SDS011;3622;53.576;9.978;2023-02-03T08:04:07;8.70;;;2.43;;
7160;SDS011;3622;53.576;9.978;2023-02-03T08:06:35;7.97;;;2.30;;
7160;SDS011;3622;53.576;9.978;2023-02-03T08:09:01;18.40;;;3.20;;
7160;SDS011;3622;53.576;9.978;2023-02-03T08:11:27;15.37;;;3.23;;
7160;SDS011;3622;53.576;9.978;2023-02-03T08:13:53;8.47;;;2.20;;
7160;SDS011;3622;53.576;9.978;2023-02-03T08:16:18;12.33;;;2.47;;
7160;SDS011;3622;53.576;9.978;2023-02-03T08:18:44;9.77;;;1.90;;
7160;SDS011;3622;53.576;9.978;2023-02-03T08:21:10;9.80;;;1.60;;
7160;SDS011;3622;53.576;9.978;2023-02-03T08:23:36;9.13;;;2.27;;
7160;SDS011;3622;53.576;9.978;2023-02-03T08:26:02;14.13;;;3.13;;
7160;SDS011;3622;53.576;9.978;2023-02-03T08:28:28;3.23;;;1.83;;
7160;SDS011;3622;53.576;9.978;2023-02-03T08:30:54;4.77;;;1.83;;
7160;SDS011;3622;53.576;9.978;2023-02-03T08:33:21;17.50;;;3.13;;
7160;SDS011;3622;53.576;9.978;2023-02-03T08:35:48;13.87;;;2.43;;
7160;SDS011;3622;53.576;9.978;2023-02-03T08:38:14;12.27;;;1.93;;
7160;SDS011;3622;53.576;9.978;2023-02-03T08:40:40;12.07;;;2.20;;
7160;SDS011;3622;53.576;9.978;2023-02-03T08:43:06;7.10;;;2.53;;
7160;SDS011;3622;53.576;9.978;2023-02-03T08:45:32;15.00;;;2.80;;
7160;SDS011;3622;53.576;9.978;2023-02-03T08:47:58;15.80;;;3.47;;
7160;SDS011;3622;53.576;9.978;2023-02-03T08:50:24;17.17;;;3.50;;
7160;SDS011;3622;53.576;9.978;2023-02-03T08:52:50;7.30;;;2.53;;
7160;SDS011;3622;53.576;9.978;2023-02-03T08:55:16;18.23;;;3.20;;
7160;SDS011;3622;53.576;9.978;2023-02-03T08:57:42;17.37;;;3.33;;
7160;SDS011;3622;53.576;9.978;2023-02-03T09:00:08;26.53;;;3.87;;
7160;SDS011;3622;53.576;9.978;2023-02-03T09:02:34;21.13;;;3.30;;
7160;SDS011;3622;53.576;9.978;2023-02-03T09:05:00;14.80;;;3.27;;
7160;SDS011;3622;53.576;9.978;2023-02-03T09:07:26;17.33;;;3.63;;
7160;SDS011;3622;53.576;9.978;2023-02-03T09:09:52;13.90;;;3.10;;
7160;SDS011;3622;53.576;9.978;2023-02-03T09:12:18;15.60;;;3.03;;
7160;SDS011;3622;53.576;9.978;2023-02-03T09:14:44;18.67;;;2.80;;
7160;SDS011;3622;53.576;9.978;2023-02-03T09:17:10;13.83;;;2.90;;
7160;SDS011;3622;53.576;9.978;2023-02-03T09:19:36;26.57;;;4.13;;
7160;SDS011;3622;53.576;9.978;2023-02-03T09:22:03;23.77;;;4.07;;
7160;SDS011;3622;53.576;9.978;2023-02-03T09:24:29;25.10;;;4.90;;
7160;SDS011;3622;53.576;9.978;2023-02-03T09:26:55;20.43;;;3.53;;
7160;SDS011;3622;53.576;9.978;2023-02-03T09:29:21;19.07;;;3.53;;
7160;SDS011;3622;53.576;9.978;2023-02-03T09:31:48;30.27;;;4.67;;
7160;SDS011;3622;53.576;9.978;2023-02-03T09:34:16;20.07;;;3.50;;
7160;SDS011;3622;53.576;9.978;2023-02-03T09:36:42;17.37;;;3.73;;
7160;SDS011;3622;53.576;9.978;2023-02-03T09:39:08;17.30;;;3.53;;
7160;SDS011;3622;53.576;9.978;2023-02-03T09:41:54;19.47;;;4.63;;
7160;SDS011;3622;53.576;9.978;2023-02-03T09:46:59;32.20;;;5.03;;
7160;SDS011;3622;53.576;9.978;2023-02-03T09:49:43;30.57;;;5.90;;
7160;SDS011;3622;53.576;9.978;2023-02-03T09:52:18;30.40;;;4.03;;
7160;SDS011;3622;53.576;9.978;2023-02-03T09:57:15;14.20;;;4.40;;
7160;SDS011;3622;53.576;9.978;2023-02-03T09:59:42;45.37;;;4.67;;
7160;SDS011;3622;53.576;9.978;2023-02-03T10:04:38;23.47;;;4.63;;
7160;SDS011;3622;53.576;9.978;2023-02-03T10:07:16;37.60;;;4.97;;
7160;SDS011;3622;53.576;9.978;2023-02-03T10:10:10;32.97;;;5.60;;
7160;SDS011;3622;53.576;9.978;2023-02-03T10:17:55;43.50;;;6.10;;
7160;SDS011;3622;53.576;9.978;2023-02-03T10:20:24;25.13;;;3.67;;
7160;SDS011;3622;53.576;9.978;2023-02-03T10:22:55;33.30;;;4.97;;
7160;SDS011;3622;53.576;9.978;2023-02-03T10:25:34;28.47;;;4.00;;
7160;SDS011;3622;53.576;9.978;2023-02-03T10:28:03;38.10;;;5.20;;
7160;SDS011;3622;53.576;9.978;2023-02-03T10:30:36;20.67;;;4.17;;
7160;SDS011;3622;53.576;9.978;2023-02-03T10:33:10;23.90;;;4.80;;
7160;SDS011;3622;53.576;9.978;2023-02-03T10:35:49;29.67;;;4.23;;
7160;SDS011;3622;53.576;9.978;2023-02-03T10:38:32;23.27;;;4.83;;
7160;SDS011;3622;53.576;9.978;2023-02-03T10:40:59;24.20;;;4.40;;
7160;SDS011;3622;53.576;9.978;2023-02-03T10:43:26;29.07;;;5.70;;
7160;SDS011;3622;53.576;9.978;2023-02-03T10:46:13;34.30;;;5.20;;
7160;SDS011;3622;53.576;9.978;2023-02-03T10:48:39;24.90;;;4.83;;
7160;SDS011;3622;53.576;9.978;2023-02-03T10:51:09;28.53;;;4.80;;
7160;SDS011;3622;53.576;9.978;2023-02-03T10:53:40;29.20;;;4.83;;
7160;SDS011;3622;53.576;9.978;2023-02-03T10:56:07;27.67;;;5.37;;
7160;SDS011;3622;53.576;9.978;2023-02-03T10:58:33;25.57;;;4.23;;
7160;SDS011;3622;53.576;9.978;2023-02-03T11:01:05;32.00;;;4.40;;
7160;SDS011;3622;53.576;9.978;2023-02-03T11:03:31;33.00;;;5.80;;
7160;SDS011;3622;53.576;9.978;2023-02-03T11:06:09;41.37;;;5.70;;
7160;SDS011;3622;53.576;9.978;2023-02-03T11:08:37;38.33;;;4.63;;
7160;SDS011;3622;53.576;9.978;2023-02-03T11:11:06;25.73;;;4.20;;
7160;SDS011;3622;53.576;9.978;2023-02-03T11:13:32;14.43;;;3.50;;
7160;SDS011;3622;53.576;9.978;2023-02-03T11:16:00;21.67;;;4.73;;
7160;SDS011;3622;53.576;9.978;2023-02-03T11:20:55;25.90;;;4.00;;
7160;SDS011;3622;53.576;9.978;2023-02-03T11:23:22;15.73;;;3.93;;
7160;SDS011;3622;53.576;9.978;2023-02-03T11:25:48;32.17;;;3.70;;
7160;SDS011;3622;53.576;9.978;2023-02-03T11:28:14;22.07;;;4.83;;
7160;SDS011;3622;53.576;9.978;2023-02-03T11:30:40;22.50;;;4.03;;
7160;SDS011;3622;53.576;9.978;2023-02-03T11:33:14;26.50;;;4.20;;
7160;SDS011;3622;53.576;9.978;2023-02-03T11:35:50;19.77;;;4.73;;
7160;SDS011;3622;53.576;9.978;2023-02-03T11:38:34;24.90;;;4.60;;
7160;SDS011;3622;53.576;9.978;2023-02-03T11:41:08;22.47;;;4.07;;
7160;SDS011;3622;53.576;9.978;2023-02-03T11:43:39;30.97;;;4.30;;
7160;SDS011;3622;53.576;9.978;2023-02-03T11:46:05;23.90;;;5.20;;
7160;SDS011;3622;53.576;9.978;2023-02-03T11:48:42;24.03;;;4.30;;
7160;SDS011;3622;53.576;9.978;2023-02-03T11:51:14;22.00;;;4.30;;
7160;SDS011;3622;53.576;9.978;2023-02-03T11:53:52;24.63;;;4.00;;
7160;SDS011;3622;53.576;9.978;2023-02-03T11:59:25;32.53;;;4.40;;
7160;SDS011;3622;53.576;9.978;2023-02-03T12:01:51;24.60;;;3.73;;
7160;SDS011;3622;53.576;9.978;2023-02-03T12:09:18;20.60;;;3.53;;
7160;SDS011;3622;53.576;9.978;2023-02-03T12:19:52;15.83;;;3.77;;
7160;SDS011;3622;53.576;9.978;2023-02-03T12:22:40;12.13;;;3.30;;
7160;SDS011;3622;53.576;9.978;2023-02-03T12:25:16;23.07;;;3.93;;
7160;SDS011;3622;53.576;9.978;2023-02-03T12:30:19;24.70;;;4.13;;
7160;SDS011;3622;53.576;9.978;2023-02-03T12:35:17;15.27;;;4.13;;
7160;SDS011;3622;53.576;9.978;2023-02-03T12:42:52;31.77;;;5.27;;
7160;SDS011;3622;53.576;9.978;2023-02-03T12:45:22;18.10;;;3.73;;
7160;SDS011;3622;53.576;9.978;2023-02-03T12:47:57;27.73;;;4.27;;
7160;SDS011;3622;53.576;9.978;2023-02-03T12:50:41;22.40;;;4.50;;
7160;SDS011;3622;53.576;9.978;2023-02-03T12:56:05;27.43;;;4.73;;
7160;SDS011;3622;53.576;9.978;2023-02-03T12:58:35;26.87;;;3.60;;
7160;SDS011;3622;53.576;9.978;2023-02-03T13:01:04;17.27;;;3.37;;
7160;SDS011;3622;53.576;9.978;2023-02-03T13:06:16;19.70;;;3.83;;
7160;SDS011;3622;53.576;9.978;2023-02-03T13:11:16;34.47;;;4.70;;
7160;SDS011;3622;53.576;9.978;2023-02-03T13:13:47;22.07;;;4.83;;
7160;SDS011;3622;53.576;9.978;2023-02-03T13:16:13;14.77;;;2.97;;
7160;SDS011;3622;53.576;9.978;2023-02-03T13:18:41;15.30;;;3.70;;
7160;SDS011;3622;53.576;9.978;2023-02-03T13:21:10;17.87;;;5.33;;
7160;SDS011;3622;53.576;9.978;2023-02-03T13:23:40;20.83;;;3.93;;
7160;SDS011;3622;53.576;9.978;2023-02-03T13:26:31;23.73;;;3.87;;
7160;SDS011;3622;53.576;9.978;2023-02-03T13:29:22;26.83;;;4.27;;
7160;SDS011;3622;53.576;9.978;2023-02-03T13:42:32;22.63;;;3.93;;
7160;SDS011;3622;53.576;9.978;2023-02-03T13:47:46;17.23;;;3.60;;
7160;SDS011;3622;53.576;9.978;2023-02-03T13:50:16;28.77;;;3.93;;
7160;SDS011;3622;53.576;9.978;2023-02-03T13:52:46;22.53;;;3.60;;
7160;SDS011;3622;53.576;9.978;2023-02-03T13:55:34;22.87;;;4.10;;
7160;SDS011;3622;53.576;9.978;2023-02-03T13:58:00;21.40;;;4.33;;
7160;SDS011;3622;53.576;9.978;2023-02-03T14:03:15;11.80;;;2.77;;
7160;SDS011;3622;53.576;9.978;2023-02-03T14:05:43;33.20;;;3.90;;
7160;SDS011;3622;53.576;9.978;2023-02-03T14:13:35;17.60;;;3.73;;
7160;SDS011;3622;53.576;9.978;2023-02-03T14:16:20;15.47;;;2.93;;
7160;SDS011;3622;53.576;9.978;2023-02-03T14:18:47;19.30;;;4.00;;
7160;SDS011;3622;53.576;9.978;2023-02-03T14:21:21;22.10;;;3.07;;
7160;SDS011;3622;53.576;9.978;2023-02-03T14:23:49;15.37;;;3.43;;
7160;SDS011;3622;53.576;9.978;2023-02-03T14:26:18;18.83;;;3.83;;
7160;SDS011;3622;53.576;9.978;2023-02-03T14:28:44;20.93;;;4.67;;
7160;SDS011;3622;53.576;9.978;2023-02-03T14:31:18;15.43;;;3.43;;
7160;SDS011;3622;53.576;9.978;2023-02-03T14:36:26;25.77;;;4.63;;
7160;SDS011;3622;53.576;9.978;2023-02-03T14:38:53;24.27;;;4.50;;
7160;SDS011;3622;53.576;9.978;2023-02-03T14:41:22;30.70;;;6.23;;
7160;SDS011;3622;53.576;9.978;2023-02-03T14:46:45;21.57;;;3.70;;
7160;SDS011;3622;53.576;9.978;2023-02-03T14:52:20;18.23;;;3.43;;
7160;SDS011;3622;53.576;9.978;2023-02-03T15:02:32;22.70;;;3.63;;
7160;SDS011;3622;53.576;9.978;2023-02-03T15:07:38;21.63;;;3.67;;
7160;SDS011;3622;53.576;9.978;2023-02-03T15:10:19;22.73;;;4.13;;
7160;SDS011;3622;53.576;9.978;2023-02-03T15:12:46;25.83;;;4.53;;
7160;SDS011;3622;53.576;9.978;2023-02-03T15:15:25;16.47;;;4.27;;
7160;SDS011;3622;53.576;9.978;2023-02-03T15:17:53;29.40;;;4.50;;
7160;SDS011;3622;53.576;9.978;2023-02-03T15:22:57;26.73;;;4.03;;
7160;SDS011;3622;53.576;9.978;2023-02-03T15:25:23;19.50;;;3.83;;
7160;SDS011;3622;53.576;9.978;2023-02-03T15:27:50;30.43;;;4.13;;
7160;SDS011;3622;53.576;9.978;2023-02-03T15:30:17;28.20;;;4.37;;
7160;SDS011;3622;53.576;9.978;2023-02-03T15:32:47;27.57;;;4.50;;
7160;SDS011;3622;53.576;9.978;2023-02-03T15:35:15;24.87;;;5.10;;
7160;SDS011;3622;53.576;9.978;2023-02-03T15:37:47;20.13;;;4.17;;
7160;SDS011;3622;53.576;9.978;2023-02-03T15:40:18;16.93;;;2.43;;
7160;SDS011;3622;53.576;9.978;2023-02-03T15:42:51;26.80;;;4.70;;
7160;SDS011;3622;53.576;9.978;2023-02-03T15:45:21;24.00;;;3.97;;
7160;SDS011;3622;53.576;9.978;2023-02-03T15:47:53;28.43;;;5.20;;
7160;SDS011;3622;53.576;9.978;2023-02-03T15:52:49;28.23;;;5.33;;
7160;SDS011;3622;53.576;9.978;2023-02-03T15:55:17;24.83;;;3.67;;
7160;SDS011;3622;53.576;9.978;2023-02-03T15:57:46;20.90;;;5.30;;
7160;SDS011;3622;53.576;9.978;2023-02-03T16:02:45;26.47;;;4.20;;
7160;SDS011;3622;53.576;9.978;2023-02-03T16:05:28;15.63;;;4.30;;
7160;SDS011;3622;53.576;9.978;2023-02-03T16:07:54;16.77;;;5.00;;
7160;SDS011;3622;53.576;9.978;2023-02-03T16:10:22;25.90;;;4.53;;
7160;SDS011;3622;53.576;9.978;2023-02-03T16:12:49;29.07;;;4.20;;
7160;SDS011;3622;53.576;9.978;2023-02-03T16:15:22;33.90;;;4.40;;
7160;SDS011;3622;53.576;9.978;2023-02-03T16:17:55;19.53;;;4.03;;
7160;SDS011;3622;53.576;9.978;2023-02-03T16:20:22;25.60;;;3.63;;
7160;SDS011;3622;53.576;9.978;2023-02-03T16:23:00;28.73;;;5.13;;
7160;SDS011;3622;53.576;9.978;2023-02-03T16:25:27;20.80;;;4.17;;
7160;SDS011;3622;53.576;9.978;2023-02-03T16:28:15;14.90;;;3.80;;
7160;SDS011;3622;53.576;9.978;2023-02-03T16:33:47;19.60;;;3.57;;
7160;SDS011;3622;53.576;9.978;2023-02-03T16:36:32;17.67;;;3.27;;
7160;SDS011;3622;53.576;9.978;2023-02-03T16:39:16;22.10;;;3.10;;
7160;SDS011;3622;53.576;9.978;2023-02-03T16:42:06;18.70;;;3.77;;
7160;SDS011;3622;53.576;9.978;2023-02-03T16:44:52;38.90;;;4.93;;
7160;SDS011;3622;53.576;9.978;2023-02-03T16:47:37;26.80;;;5.90;;
7160;SDS011;3622;53.576;9.978;2023-02-03T16:50:22;28.30;;;4.77;;
7160;SDS011;3622;53.576;9.978;2023-02-03T16:53:11;23.70;;;4.23;;
7160;SDS011;3622;53.576;9.978;2023-02-03T16:55:38;36.17;;;4.80;;
7160;SDS011;3622;53.576;9.978;2023-02-03T16:58:04;30.53;;;4.00;;
7160;SDS011;3622;53.576;9.978;2023-02-03T17:00:30;30.17;;;3.17;;
7160;SDS011;3622;53.576;9.978;2023-02-03T17:02:56;33.83;;;4.00;;
7160;SDS011;3622;53.576;9.978;2023-02-03T17:05:22;34.00;;;4.20;;
7160;SDS011;3622;53.576;9.978;2023-02-03T17:07:48;22.70;;;5.10;;
7160;SDS011;3622;53.576;9.978;2023-02-03T17:10:15;30.40;;;5.27;;
7160;SDS011;3622;53.576;9.978;2023-02-03T17:12:41;32.10;;;4.30;;
7160;SDS011;3622;53.576;9.978;2023-02-03T17:15:07;52.90;;;5.30;;
7160;SDS011;3622;53.576;9.978;2023-02-03T17:17:33;22.53;;;3.93;;
7160;SDS011;3622;53.576;9.978;2023-02-03T17:19:59;31.53;;;4.50;;
7160;SDS011;3622;53.576;9.978;2023-02-03T17:22:25;26.33;;;5.00;;
7160;SDS011;3622;53.576;9.978;2023-02-03T17:24:51;31.97;;;4.90;;
7160;SDS011;3622;53.576;9.978;2023-02-03T17:27:17;32.10;;;4.63;;
7160;SDS011;3622;53.576;9.978;2023-02-03T17:29:43;30.13;;;5.40;;